Orrington, Maine
Current Conditions -  °F | °C
As of 11:53 AM on Friday 31 Oct 2014 (Local Time) from KBGR Reporting Station
Broken Clouds Broken Clouds  
Wind Chill: 49°   Ceiling: 3900
Heat Index: 49°   Visibility: 10mi
Dew Point: 31°   Wind: 3mph
Humidity: 50%   Direction: 330°NNW
Pressure: 30.04"   Gusts: NA
Location:  44.73°N, 68.83°W
Report Text: KBGR 311553Z 33003KT 10SM BKN039 BKN060 09/M01 A3004 RMK AO2 SLP173 T00941006
Loading
Personal Weather Stations






























Interactive Weather Map
Tropical Storm Tracking
New forecast layout! Learn more

10-Day Weather Forecast

Advertisements
Track Severe Weather on mobile